createdAt,value
2023-03-26T00:01:23.893Z,96711.94
2023-03-26T00:03:55.356Z,96715.44
2023-03-26T00:06:23.786Z,96716.81
2023-03-26T00:08:51.626Z,96709.19
2023-03-26T00:11:21.079Z,96702.78
2023-03-26T00:13:48.202Z,96704.91
2023-03-26T00:16:17.621Z,96698.06
2023-03-26T00:18:45.067Z,96695.31
2023-03-26T00:21:28.145Z,96690.63
2023-03-26T00:24:01.337Z,96706.75
2023-03-26T00:26:29.804Z,96683.78
2023-03-26T00:28:57.693Z,96689.41
2023-03-26T00:31:24.730Z,96681.00
2023-03-26T00:33:54.480Z,96676.28
2023-03-26T00:36:22.515Z,96668.06
2023-03-26T00:38:49.447Z,96673.09
2023-03-26T00:41:18.120Z,96667.78
2023-03-26T00:43:46.821Z,96668.06
2023-03-26T00:46:13.928Z,96664.88
2023-03-26T00:48:45.846Z,96653.91
2023-03-26T00:51:15.695Z,96660.00
2023-03-26T00:53:44.646Z,96659.41
2023-03-26T00:56:12.066Z,96651.94
2023-03-26T00:58:39.655Z,96649.19
2023-03-26T01:01:13.971Z,96640.38
2023-03-26T01:03:50.164Z,96635.38
2023-03-26T01:06:27.961Z,96632.44
2023-03-26T01:09:00.400Z,96627.13
2023-03-26T01:11:31.179Z,96618.63
2023-03-26T01:13:59.646Z,96608.28
2023-03-26T01:16:31.522Z,96616.63
2023-03-26T01:18:59.039Z,96615.56
2023-03-26T01:21:30.520Z,96625.63
2023-03-26T01:24:08.561Z,96610.09
2023-03-26T01:26:54.293Z,96604.59
2023-03-26T01:29:33.512Z,96615.25
2023-03-26T01:32:20.866Z,96608.88
2023-03-26T01:35:15.989Z,96609.28
2023-03-26T01:38:01.470Z,96596.53
2023-03-26T01:40:43.150Z,96595.19
2023-03-26T01:43:27.924Z,96581.44
2023-03-26T01:45:56.616Z,96569.47
2023-03-26T01:48:31.709Z,96560.94
2023-03-26T01:50:58.969Z,96550.72
2023-03-26T01:53:26.374Z,96541.31
2023-03-26T01:56:11.129Z,96530.50
2023-03-26T01:59:16.503Z,96531.56
2023-03-26T02:02:07.245Z,96516.34
2023-03-26T02:04:55.126Z,96495.06
2023-03-26T02:07:29.853Z,96481.41
2023-03-26T02:10:02.301Z,96470.84
2023-03-26T02:12:30.200Z,96474.66
2023-03-26T02:15:00.309Z,96462.22
2023-03-26T02:17:30.297Z,96462.50
2023-03-26T02:19:57.485Z,96456.16
2023-03-26T02:22:30.128Z,96453.69
2023-03-26T02:24:58.226Z,96441.66
2023-03-26T02:27:25.083Z,96439.53
2023-03-26T02:29:52.095Z,96428.88
2023-03-26T02:32:21.318Z,96423.56
2023-03-26T02:34:47.953Z,96410.50
2023-03-26T02:37:14.769Z,96407.47
2023-03-26T02:39:43.004Z,96398.47
2023-03-26T02:42:17.667Z,96407.28
2023-03-26T02:44:48.052Z,96409.88
2023-03-26T02:47:17.551Z,96397.41
2023-03-26T02:49:53.261Z,96404.09
2023-03-26T02:52:40.255Z,96388.13
2023-03-26T02:55:07.623Z,96375.66
2023-03-26T02:57:35.122Z,96367.16
2023-03-26T03:00:15.414Z,96354.66
2023-03-26T03:02:48.253Z,96353.47
2023-03-26T03:05:32.309Z,96349.34
2023-03-26T03:08:19.026Z,96343.13
2023-03-26T03:11:13.415Z,96340.06
2023-03-26T03:13:48.134Z,96330.00
2023-03-26T03:16:21.835Z,96328.22
2023-03-26T03:18:54.652Z,96330.34
2023-03-26T03:21:28.084Z,96309.03
2023-03-26T03:24:00.209Z,96305.28
2023-03-26T03:26:30.209Z,96297.84
2023-03-26T03:28:59.998Z,96288.25
2023-03-26T03:31:27.173Z,96281.88
2023-03-26T03:33:59.435Z,96260.84
2023-03-26T03:36:33.284Z,96257.53
2023-03-26T03:39:20.691Z,96243.09
2023-03-26T03:41:47.479Z,96235.00
2023-03-26T03:44:15.845Z,96229.53
2023-03-26T03:46:42.714Z,96215.53
2023-03-26T03:49:09.591Z,96214.78
2023-03-26T03:51:37.784Z,96208.09
2023-03-26T03:54:12.701Z,96184.88
2023-03-26T03:56:49.176Z,96168.75
2023-03-26T03:59:34.354Z,96165.06
2023-03-26T04:02:03.835Z,96144.25
2023-03-26T04:04:53.395Z,96133.59
2023-03-26T04:07:21.720Z,96125.84
2023-03-26T04:10:15.841Z,96111.13
2023-03-26T04:13:21.834Z,96102.06
2023-03-26T04:16:09.136Z,96085.00
2023-03-26T04:18:37.730Z,96068.28
2023-03-26T04:21:12.858Z,96062.69
2023-03-26T04:23:39.817Z,96044.91
2023-03-26T04:26:19.985Z,96028.19
2023-03-26T04:29:12.091Z,96003.75
2023-03-26T04:31:38.954Z,95996.75
2023-03-26T04:34:13.698Z,95978.66
2023-03-26T04:36:54.642Z,95974.47
2023-03-26T04:39:29.437Z,95968.09
2023-03-26T04:42:20.551Z,95959.31
2023-03-26T04:45:09.569Z,95949.00
2023-03-26T04:47:37.278Z,95943.53
2023-03-26T04:50:07.802Z,95944.28
2023-03-26T04:52:36.643Z,95938.66
2023-03-26T04:55:37.004Z,95922.59
2023-03-26T04:58:14.214Z,95908.91
2023-03-26T05:01:10.594Z,95892.16
2023-03-26T05:03:42.057Z,95866.34
2023-03-26T05:06:13.312Z,95853.97
2023-03-26T05:08:42.047Z,95824.81
2023-03-26T05:11:13.091Z,95804.91
2023-03-26T05:13:43.064Z,95793.59
2023-03-26T05:16:13.257Z,95781.66
2023-03-26T05:18:44.845Z,95758.31
2023-03-26T05:21:11.541Z,95743.56
2023-03-26T05:23:39.847Z,95727.63
2023-03-26T05:26:33.917Z,95710.31
2023-03-26T05:29:03.025Z,95698.38
2023-03-26T05:31:33.903Z,95681.81
2023-03-26T05:34:02.168Z,95674.06
2023-03-26T05:36:29.083Z,95667.19
2023-03-26T05:39:18.766Z,95655.47
2023-03-26T05:42:07.997Z,95652.88
2023-03-26T05:45:10.187Z,95649.56
2023-03-26T05:47:37.198Z,95630.63
2023-03-26T05:50:06.343Z,95616.19
2023-03-26T05:52:35.179Z,95609.31
2023-03-26T05:55:22.114Z,95609.13
2023-03-26T05:58:07.381Z,95604.78
2023-03-26T06:01:02.763Z,95594.03
2023-03-26T06:03:40.734Z,95590.94
2023-03-26T06:06:17.351Z,95588.88
2023-03-26T06:09:01.976Z,95592.88
2023-03-26T06:11:29.897Z,95584.78
2023-03-26T06:13:56.594Z,95582.66
2023-03-26T06:16:26.365Z,95582.66
2023-03-26T06:18:59.979Z,95583.72
2023-03-26T06:21:56.124Z,95573.25
2023-03-26T06:24:28.067Z,95584.13
2023-03-26T06:26:57.720Z,95583.59
2023-03-26T06:29:42.854Z,95574.16
2023-03-26T06:32:45.010Z,95567.47
2023-03-26T06:35:17.823Z,95557.78
2023-03-26T06:37:44.657Z,95551.97
2023-03-26T06:40:12.702Z,95550.56
2023-03-26T06:43:07.478Z,95540.91
2023-03-26T06:45:53.233Z,95537.47
2023-03-26T06:48:38.995Z,95533.03
2023-03-26T06:51:18.149Z,95531.41
2023-03-26T06:54:03.580Z,95522.78
2023-03-26T06:56:49.098Z,95528.44
2023-03-26T06:59:41.980Z,95516.03
2023-03-26T07:02:27.790Z,95513.34
2023-03-26T07:05:13.380Z,95502.56
2023-03-26T07:08:16.170Z,95489.25
2023-03-26T07:11:01.303Z,95498.59
2023-03-26T07:13:56.888Z,95493.72
2023-03-26T07:16:42.339Z,95474.16
2023-03-26T07:19:27.979Z,95472.25
2023-03-26T07:21:55.466Z,95462.13
2023-03-26T07:24:42.554Z,95467.38
2023-03-26T07:27:50.254Z,95463.09
2023-03-26T07:30:37.956Z,95460.06
2023-03-26T07:33:31.973Z,95472.88
2023-03-26T07:36:30.223Z,95472.75
2023-03-26T07:39:50.754Z,95471.06
2023-03-26T07:42:56.490Z,95487.22
2023-03-26T07:45:49.578Z,95500.22
2023-03-26T07:48:44.756Z,95494.09
2023-03-26T07:51:16.419Z,95500.03
2023-03-26T07:53:54.066Z,95507.97
2023-03-26T07:56:46.410Z,95507.13
2023-03-26T07:59:50.285Z,95499.91
2023-03-26T08:02:51.819Z,95519.16
2023-03-26T08:06:03.377Z,95513.66
2023-03-26T08:09:08.024Z,95515.78
2023-03-26T08:11:47.396Z,95520.59
2023-03-26T08:14:33.657Z,95515.13
2023-03-26T08:17:31.077Z,95513.69
2023-03-26T08:20:41.633Z,95519.84
2023-03-26T08:23:34.378Z,95519.84
2023-03-26T08:26:44.239Z,95533.97
2023-03-26T08:29:18.268Z,95573.69
2023-03-26T08:31:48.066Z,95526.53
2023-03-26T08:34:15.175Z,95521.38
2023-03-26T08:36:42.465Z,95521.72
2023-03-26T08:39:09.278Z,95520.53
2023-03-26T08:42:00.661Z,95510.75
2023-03-26T08:44:47.931Z,95501.59
2023-03-26T08:47:42.055Z,95502.66
2023-03-26T08:50:33.804Z,95491.25
2023-03-26T08:53:03.400Z,95486.22
2023-03-26T08:55:57.014Z,95482.69
2023-03-26T08:59:05.549Z,95490.44
2023-03-26T09:02:03.076Z,95482.09
2023-03-26T09:04:57.910Z,95471.50
2023-03-26T09:07:47.912Z,95476.13
2023-03-26T09:10:50.805Z,95467.19
2023-03-26T09:13:56.307Z,95475.44
2023-03-26T09:16:46.435Z,95480.19
2023-03-26T09:19:34.229Z,95465.88
2023-03-26T09:22:25.267Z,95475.66
2023-03-26T09:25:30.132Z,95467.00
2023-03-26T09:27:59.518Z,95452.22
2023-03-26T09:31:00.241Z,95439.47
2023-03-26T09:33:36.942Z,95412.66
2023-03-26T09:36:21.867Z,95405.72
2023-03-26T09:39:05.408Z,95425.72
2023-03-26T09:41:50.069Z,95414.75
2023-03-26T09:44:35.688Z,95403.31
2023-03-26T09:47:21.793Z,95399.63
2023-03-26T09:50:24.856Z,95393.25
2023-03-26T09:53:03.071Z,95412.81
2023-03-26T09:55:45.387Z,95407.03
2023-03-26T09:58:33.548Z,95412.97
2023-03-26T10:01:18.384Z,95414.31
2023-03-26T10:03:51.178Z,95428.78
2023-03-26T10:06:33.262Z,95431.09
2023-03-26T10:09:18.177Z,95418.31
2023-03-26T10:11:58.652Z,95436.47
2023-03-26T10:14:35.865Z,95437.16
2023-03-26T10:17:16.938Z,95442.75
2023-03-26T10:19:54.605Z,95427.63
2023-03-26T10:22:34.862Z,95444.66
2023-03-26T10:25:13.329Z,95448.94
2023-03-26T10:28:37.273Z,95456.00
2023-03-26T10:31:36.293Z,95466.91
2023-03-26T10:34:35.460Z,95472.50
2023-03-26T10:37:29.761Z,95473.41
2023-03-26T10:40:15.235Z,95467.56
2023-03-26T10:43:03.353Z,95473.16
2023-03-26T10:46:03.186Z,95478.00
2023-03-26T10:49:04.534Z,95491.94
2023-03-26T10:51:59.451Z,95520.19
2023-03-26T10:55:00.975Z,95522.56
2023-03-26T10:57:49.178Z,95512.69
2023-03-26T11:00:25.637Z,95505.66
2023-03-26T11:03:11.438Z,95521.03
2023-03-26T11:05:47.970Z,95504.09
2023-03-26T11:08:31.192Z,95481.69
2023-03-26T11:11:09.967Z,95480.81
2023-03-26T11:13:46.705Z,95473.41
2023-03-26T11:16:25.749Z,95454.00
2023-03-26T11:19:17.271Z,95445.75
2023-03-26T11:21:56.406Z,95432.34
2023-03-26T11:24:38.081Z,95417.19
2023-03-26T11:27:23.707Z,95423.19
2023-03-26T11:30:20.979Z,95397.34
2023-03-26T11:32:52.008Z,95384.19
2023-03-26T11:35:40.701Z,95403.63
2023-03-26T11:38:19.520Z,95408.00
2023-03-26T11:40:51.158Z,95400.00
2023-03-26T11:43:36.787Z,95403.34
2023-03-26T11:46:08.443Z,95389.03
2023-03-26T11:48:42.029Z,95399.09
2023-03-26T11:51:14.850Z,95403.78
2023-03-26T11:53:47.153Z,95412.06
2023-03-26T11:56:15.236Z,95404.75
2023-03-26T11:59:05.434Z,95393.38
2023-03-26T12:01:55.678Z,95385.25
2023-03-26T12:04:29.405Z,95405.69
2023-03-26T12:07:09.670Z,95402.34
2023-03-26T12:09:36.986Z,95391.09
2023-03-26T12:12:05.181Z,95424.03
2023-03-26T12:14:35.615Z,95432.88
2023-03-26T12:17:11.773Z,95439.00
2023-03-26T12:19:44.241Z,95442.88
2023-03-26T12:22:36.469Z,95448.66
2023-03-26T12:25:16.337Z,95428.94
2023-03-26T12:27:50.562Z,95462.53
2023-03-26T12:30:26.010Z,95451.13
2023-03-26T12:32:57.862Z,95497.94
2023-03-26T12:35:27.896Z,95518.25
2023-03-26T12:38:33.494Z,95543.44
2023-03-26T12:44:41.859Z,95606.19
2023-03-26T12:44:52.752Z,95635.31
2023-03-26T12:47:58.862Z,95678.19
2023-03-26T12:50:06.067Z,95705.00
2023-03-26T12:53:03.172Z,95683.53
2023-03-26T12:55:38.057Z,95823.88
2023-03-26T12:58:21.238Z,95827.72
2023-03-26T13:01:28.512Z,95843.75
2023-03-26T13:04:10.289Z,95922.47
2023-03-26T13:07:00.353Z,95911.41
2023-03-26T13:09:29.194Z,95941.56
2023-03-26T13:12:04.965Z,95936.47
2023-03-26T13:15:19.437Z,95951.75
2023-03-26T13:18:08.536Z,95982.31
2023-03-26T13:20:49.764Z,95998.44
2023-03-26T13:23:27.876Z,96053.31
2023-03-26T13:26:18.899Z,96083.22
2023-03-26T13:28:59.587Z,96071.59
2023-03-26T13:31:40.032Z,96068.03
2023-03-26T13:34:27.960Z,96059.09
2023-03-26T13:37:23.131Z,96032.75
2023-03-26T13:40:18.337Z,96057.44
2023-03-26T13:43:03.784Z,96065.69
2023-03-26T13:45:52.120Z,96009.31
2023-03-26T13:48:27.230Z,96014.56
2023-03-26T13:51:02.081Z,95978.28
2023-03-26T13:53:37.011Z,95882.53
2023-03-26T13:56:06.435Z,95819.69
2023-03-26T13:58:43.212Z,95736.63
2023-03-26T14:01:16.963Z,95732.13
2023-03-26T14:03:56.086Z,95694.84
2023-03-26T14:06:46.713Z,95662.50
2023-03-26T14:09:16.363Z,95608.03
2023-03-26T14:11:55.489Z,95586.75
2023-03-26T14:14:31.168Z,95601.56
2023-03-26T14:17:16.649Z,95572.22
2023-03-26T14:20:08.288Z,95587.66
2023-03-26T14:22:37.639Z,95571.31
2023-03-26T14:25:32.455Z,95587.66
2023-03-26T14:28:10.386Z,95573.44
2023-03-26T14:30:43.016Z,95543.09
2023-03-26T14:33:27.422Z,95552.66
2023-03-26T14:36:00.857Z,95534.22
2023-03-26T14:38:56.872Z,95526.44
2023-03-26T14:41:42.910Z,95509.94
2023-03-26T14:44:30.820Z,95519.63
2023-03-26T14:47:23.232Z,95512.69
2023-03-26T14:50:11.845Z,95496.91
2023-03-26T14:52:50.192Z,95497.88
2023-03-26T14:55:35.571Z,95496.94
2023-03-26T14:58:34.254Z,95472.59
2023-03-26T15:01:23.111Z,95483.06
2023-03-26T15:04:08.451Z,95484.84
2023-03-26T15:06:45.401Z,95539.66
2023-03-26T15:09:37.539Z,95552.41
2023-03-26T15:12:14.641Z,95557.31
2023-03-26T15:14:56.606Z,95555.72
2023-03-26T15:18:00.689Z,95532.25
2023-03-26T15:20:48.203Z,95520.81
2023-03-26T15:23:39.372Z,95526.66
2023-03-26T15:26:24.723Z,95520.31
2023-03-26T15:29:15.636Z,95506.06
2023-03-26T15:31:54.134Z,95496.78
2023-03-26T15:34:39.448Z,95506.44
2023-03-26T15:37:15.384Z,95511.97
2023-03-26T15:40:36.523Z,95490.31
2023-03-26T15:43:11.124Z,95471.97
2023-03-26T15:46:00.033Z,95463.09
2023-03-26T15:48:40.317Z,95426.50
2023-03-26T15:51:20.929Z,95417.41
2023-03-26T15:54:14.783Z,95428.50
2023-03-26T15:56:58.125Z,95433.41
2023-03-26T16:00:01.735Z,95422.50
2023-03-26T16:03:13.213Z,95418.75
2023-03-26T16:06:10.729Z,95415.09
2023-03-26T16:09:11.761Z,95412.28
2023-03-26T16:11:58.020Z,95415.19
2023-03-26T16:14:43.151Z,95419.78
2023-03-26T16:17:23.396Z,95430.69
2023-03-26T16:20:32.832Z,95429.22
2023-03-26T16:23:01.840Z,95432.13
2023-03-26T16:25:33.544Z,95419.91
2023-03-26T16:28:12.580Z,95407.63
2023-03-26T16:30:39.621Z,95407.53
2023-03-26T16:33:15.930Z,95406.13
2023-03-26T16:36:03.599Z,95424.63
2023-03-26T16:38:54.802Z,95426.91
2023-03-26T16:41:30.063Z,95436.75
2023-03-26T16:43:59.915Z,95442.84
2023-03-26T16:46:50.671Z,95452.03
2023-03-26T16:50:08.210Z,95449.22
2023-03-26T16:53:01.141Z,95472.63
2023-03-26T16:55:31.122Z,95483.97
2023-03-26T16:58:15.446Z,95483.16
2023-03-26T17:00:48.830Z,95474.13
2023-03-26T17:03:35.567Z,95475.13
2023-03-26T17:06:12.024Z,95495.75
2023-03-26T17:08:46.692Z,95484.25
2023-03-26T17:11:47.471Z,95486.91
2023-03-26T17:14:35.553Z,95473.34
2023-03-26T17:17:46.688Z,95480.66
2023-03-26T17:20:26.481Z,95482.50
2023-03-26T17:23:39.724Z,95490.50
2023-03-26T17:27:03.020Z,95507.34
2023-03-26T17:29:41.716Z,95503.28
2023-03-26T17:32:15.446Z,95502.50
2023-03-26T17:34:46.940Z,95502.53
2023-03-26T17:37:17.004Z,95510.44
2023-03-26T17:39:43.781Z,95507.03
2023-03-26T17:42:13.892Z,95507.13
2023-03-26T17:44:44.832Z,95500.41
2023-03-26T17:47:26.878Z,95498.69
2023-03-26T17:50:02.745Z,95499.19
2023-03-26T17:53:07.396Z,95490.81
2023-03-26T17:55:38.990Z,95493.59
2023-03-26T17:58:08.023Z,95509.34
2023-03-26T18:00:44.782Z,95516.47
2023-03-26T18:03:36.177Z,95511.78
2023-03-26T18:06:40.939Z,95523.56
2023-03-26T18:09:11.377Z,95537.38
2023-03-26T18:11:47.127Z,95528.78
2023-03-26T18:14:31.307Z,95520.03
2023-03-26T18:17:00.636Z,95523.06
2023-03-26T18:19:27.553Z,95525.34
2023-03-26T18:21:59.524Z,95522.28
2023-03-26T18:24:37.642Z,95527.09
2023-03-26T18:27:21.350Z,95524.13
2023-03-26T18:29:57.270Z,95534.72
2023-03-26T18:32:33.835Z,95529.19
2023-03-26T18:35:21.464Z,95534.38
2023-03-26T18:37:53.502Z,95542.78
2023-03-26T18:40:23.015Z,95548.13
2023-03-26T18:42:56.001Z,95544.19
2023-03-26T18:45:25.612Z,95542.69
2023-03-26T18:47:54.717Z,95550.38
2023-03-26T18:50:31.080Z,95551.59
2023-03-26T18:53:00.240Z,95552.53
2023-03-26T18:55:28.837Z,95556.34
2023-03-26T18:57:56.502Z,95556.34
2023-03-26T19:00:26.242Z,95570.69
2023-03-26T19:03:04.440Z,95573.09
2023-03-26T19:05:33.915Z,95582.69
2023-03-26T19:08:03.775Z,95598.63
2023-03-26T19:10:33.258Z,95612.56
2023-03-26T19:13:04.339Z,95626.53
2023-03-26T19:15:33.981Z,95624.47
2023-03-26T19:18:14.584Z,95640.97
2023-03-26T19:20:47.681Z,95645.59
2023-03-26T19:23:18.338Z,95650.75
2023-03-26T19:25:48.585Z,95657.00
2023-03-26T19:28:19.650Z,95669.38
2023-03-26T19:30:46.638Z,95678.63
2023-03-26T19:33:18.444Z,95681.75
2023-03-26T19:35:51.967Z,95679.28
2023-03-26T19:38:27.788Z,95696.63
2023-03-26T19:40:56.759Z,95683.16
2023-03-26T19:43:25.888Z,95684.44
2023-03-26T19:46:00.545Z,95687.34
2023-03-26T19:48:46.746Z,95704.56
2023-03-26T19:51:34.605Z,95712.72
2023-03-26T19:54:04.515Z,95707.44
2023-03-26T19:56:31.790Z,95711.56
2023-03-26T19:58:59.365Z,95719.84
2023-03-26T20:01:29.382Z,95716.06
2023-03-26T20:04:00.098Z,95717.78
2023-03-26T20:06:42.485Z,95735.84
2023-03-26T20:09:11.889Z,95745.44
2023-03-26T20:11:39.982Z,95746.75
2023-03-26T20:14:17.526Z,95752.38
2023-03-26T20:16:45.251Z,95762.03
2023-03-26T20:19:14.342Z,95774.69
2023-03-26T20:21:42.172Z,95777.28
2023-03-26T20:24:15.088Z,95783.34
2023-03-26T20:26:42.562Z,95784.50
2023-03-26T20:29:10.265Z,95784.41
2023-03-26T20:31:38.291Z,95784.78
2023-03-26T20:34:09.891Z,95790.38
2023-03-26T20:36:36.866Z,95789.78
2023-03-26T20:39:08.155Z,95790.25
2023-03-26T20:41:38.264Z,95798.41
2023-03-26T20:44:13.884Z,95795.88
2023-03-26T20:46:41.720Z,95812.03
2023-03-26T20:49:10.317Z,95829.69
2023-03-26T20:51:38.465Z,95848.69
2023-03-26T20:54:06.608Z,95844.88
2023-03-26T20:56:37.762Z,95859.25
2023-03-26T20:59:10.979Z,95873.53
2023-03-26T21:01:38.828Z,95888.91
2023-03-26T21:04:06.564Z,95899.03
2023-03-26T21:06:33.303Z,95907.94
2023-03-26T21:09:00.523Z,95914.94
2023-03-26T21:11:39.923Z,95937.50
2023-03-26T21:14:08.464Z,95941.25
2023-03-26T21:16:37.570Z,95950.84
2023-03-26T21:19:04.677Z,95954.66
2023-03-26T21:22:07.438Z,95965.31
2023-03-26T21:25:02.240Z,95985.34
2023-03-26T21:27:58.075Z,96000.50
2023-03-26T21:30:25.019Z,96028.28
2023-03-26T21:32:52.198Z,96037.25
2023-03-26T21:35:19.561Z,96056.34
2023-03-26T21:37:48.921Z,96062.41
2023-03-26T21:40:18.193Z,96074.41
2023-03-26T21:42:51.138Z,96081.06
2023-03-26T21:45:19.317Z,96086.22
2023-03-26T21:47:46.496Z,96086.41
2023-03-26T21:50:17.617Z,96094.88
2023-03-26T21:52:47.807Z,96100.47
2023-03-26T21:55:16.282Z,96114.31
2023-03-26T21:57:45.985Z,96113.22
2023-03-26T22:00:23.697Z,96126.06
2023-03-26T22:03:07.400Z,96127.31
2023-03-26T22:06:12.071Z,96146.69
2023-03-26T22:08:42.162Z,96140.66
2023-03-26T22:11:11.429Z,96153.22
2023-03-26T22:13:39.052Z,96151.75
2023-03-26T22:16:08.250Z,96170.22
2023-03-26T22:18:35.636Z,96178.25
2023-03-26T22:21:02.650Z,96174.56
2023-03-26T22:23:36.135Z,96189.38
2023-03-26T22:26:04.019Z,96179.44
2023-03-26T22:28:31.345Z,96194.13
2023-03-26T22:30:58.637Z,96194.53
2023-03-26T22:33:25.657Z,96231.78
2023-03-26T22:35:52.529Z,96245.97
2023-03-26T22:38:19.474Z,96270.31
2023-03-26T22:40:54.949Z,96340.63
2023-03-26T22:43:21.736Z,96378.44
2023-03-26T22:45:53.704Z,96444.34
2023-03-26T22:48:24.085Z,96457.59
2023-03-26T22:51:02.829Z,96494.59
2023-03-26T22:53:31.008Z,96522.25
2023-03-26T22:55:59.107Z,96566.59
2023-03-26T22:58:27.296Z,96592.34
2023-03-26T23:01:07.905Z,96638.75
2023-03-26T23:03:35.998Z,96692.31
2023-03-26T23:06:06.419Z,96684.63
2023-03-26T23:08:34.526Z,96687.31
2023-03-26T23:11:02.191Z,96761.63
2023-03-26T23:13:28.907Z,96762.91
2023-03-26T23:15:57.296Z,96793.09
2023-03-26T23:18:24.564Z,96789.66
2023-03-26T23:20:53.082Z,96816.31
2023-03-26T23:23:27.452Z,96840.50
2023-03-26T23:26:02.108Z,96848.63
2023-03-26T23:28:33.545Z,96838.84
2023-03-26T23:31:06.385Z,96824.09
2023-03-26T23:33:35.607Z,96852.22
2023-03-26T23:36:09.296Z,96867.34
2023-03-26T23:38:43.614Z,96867.88
2023-03-26T23:41:15.462Z,96872.22
2023-03-26T23:43:53.848Z,96898.44
2023-03-26T23:46:23.786Z,96865.31
2023-03-26T23:48:51.378Z,96883.81
2023-03-26T23:51:20.244Z,96882.75
2023-03-26T23:53:49.503Z,96896.88
2023-03-26T23:56:16.527Z,96903.13
2023-03-26T23:58:43.314Z,96919.38
